Time;durP1;ratioP1;P1;durP2;ratioP2;P2;SDS_P1;SDS_P2;PMS_P1;PMS_P2;Temp;Humidity;BMP_temperature;BMP_pressure;BME280_temperature;BME280_humidity;BME280_pressure;Samples;Min_cycle;Max_cycle;Signal;HPM_P1;HPM_P2
2021/11/21 00:00:11;;;;;;;13.70;6.32;;;;;;;;;;4895694;29;20059;-74
2021/11/21 00:02:46;;;;;;;16.20;6.63;;;;;;;;;;4873782;29;20101;-74
2021/11/21 00:05:16;;;;;;;16.33;6.93;;;;;;;;;;4895752;29;20068;-74
2021/11/21 00:07:44;;;;;;;14.38;6.63;;;;;;;;;;4894464;29;20100;-74
2021/11/21 00:10:13;;;;;;;14.23;5.75;;;;;;;;;;4896011;29;20080;-74
2021/11/21 00:12:41;;;;;;;12.95;6.03;;;;;;;;;;4894916;29;20076;-74
2021/11/21 00:15:12;;;;;;;12.47;5.53;;;;;;;;;;4892076;29;20056;-74
2021/11/21 00:17:41;;;;;;;12.50;6.35;;;;;;;;;;4896976;29;20048;-74
2021/11/21 00:20:16;;;;;;;13.65;5.93;;;;;;;;;;4895769;29;20048;-74
2021/11/21 00:22:46;;;;;;;13.02;5.63;;;;;;;;;;4896697;29;20048;-74
2021/11/21 00:25:14;;;;;;;12.52;5.05;;;;;;;;;;4895925;29;20131;-74
2021/11/21 00:27:43;;;;;;;12.93;5.87;;;;;;;;;;4896679;29;20140;-74
2021/11/21 00:30:13;;;;;;;15.32;6.57;;;;;;;;;;4889109;29;20054;-74
2021/11/21 00:32:42;;;;;;;15.15;6.28;;;;;;;;;;4887746;29;20088;-74
2021/11/21 00:35:10;;;;;;;15.30;6.10;;;;;;;;;;4896459;29;20414;-74
2021/11/21 00:37:39;;;;;;;15.32;7.75;;;;;;;;;;4895227;29;20052;-74
2021/11/21 00:40:32;;;;;;;12.83;5.07;;;;;;;;;;4896232;29;20044;-74
2021/11/21 00:43:01;;;;;;;12.63;6.13;;;;;;;;;;4896233;29;20127;-74
2021/11/21 00:45:33;;;;;;;17.92;7.15;;;;;;;;;;4890065;29;20056;-74
2021/11/21 00:48:02;;;;;;;12.80;6.07;;;;;;;;;;4894387;29;20073;-75
2021/11/21 00:50:32;;;;;;;14.27;6.13;;;;;;;;;;4896284;29;20050;-74
2021/11/21 00:53:02;;;;;;;12.70;5.73;;;;;;;;;;4892187;29;20048;-74
2021/11/21 00:55:37;;;;;;;13.20;6.55;;;;;;;;;;4892770;29;20543;-74
2021/11/21 00:58:09;;;;;;;12.52;5.72;;;;;;;;;;4889576;29;20044;-74
2021/11/21 01:01:03;;;;;;;15.02;6.43;;;;;;;;;;4896255;29;20062;-74
2021/11/21 01:03:41;;;;;;;13.15;5.50;;;;;;;;;;4933104;29;20054;-74
2021/11/21 01:06:17;;;;;;;12.67;5.30;;;;;;;;;;4933525;29;20106;-74
2021/11/21 01:08:46;;;;;;;16.45;7.10;;;;;;;;;;4931024;29;20533;-74
2021/11/21 01:11:15;;;;;;;16.35;6.63;;;;;;;;;;4928401;29;20051;-74
2021/11/21 01:13:44;;;;;;;11.88;5.40;;;;;;;;;;4912624;29;20052;-74
2021/11/21 01:16:16;;;;;;;13.43;5.97;;;;;;;;;;4916308;29;20055;-74
2021/11/21 01:18:46;;;;;;;12.43;6.13;;;;;;;;;;4916446;29;20060;-74
2021/11/21 01:21:15;;;;;;;12.73;5.40;;;;;;;;;;4928255;29;20055;-74
2021/11/21 01:23:44;;;;;;;12.13;5.75;;;;;;;;;;4927641;29;20445;-74
2021/11/21 01:26:13;;;;;;;12.05;5.15;;;;;;;;;;4932001;29;20081;-75
2021/11/21 01:28:41;;;;;;;11.48;5.80;;;;;;;;;;4915165;29;20074;-74
2021/11/21 01:31:13;;;;;;;13.00;5.50;;;;;;;;;;4925217;29;20052;-73
2021/11/21 01:33:42;;;;;;;11.60;5.95;;;;;;;;;;4927862;29;20143;-74
2021/11/21 01:36:15;;;;;;;13.07;5.57;;;;;;;;;;4916761;29;20082;-73
2021/11/21 01:38:45;;;;;;;12.35;5.50;;;;;;;;;;4925730;29;20131;-74
2021/11/21 01:41:16;;;;;;;14.30;5.85;;;;;;;;;;4913590;29;20055;-75
2021/11/21 01:43:45;;;;;;;10.93;6.03;;;;;;;;;;4912468;29;20072;-76
2021/11/21 01:46:15;;;;;;;13.15;5.78;;;;;;;;;;4929512;29;20052;-76
2021/11/21 01:48:44;;;;;;;12.88;5.88;;;;;;;;;;4914830;29;20047;-73
2021/11/21 01:51:16;;;;;;;11.80;5.65;;;;;;;;;;4913968;29;20166;-76
2021/11/21 01:53:46;;;;;;;10.02;5.60;;;;;;;;;;4907393;29;20056;-76
2021/11/21 01:56:39;;;;;;;11.67;5.27;;;;;;;;;;4927910;29;20067;-76
2021/11/21 01:59:07;;;;;;;12.45;6.25;;;;;;;;;;4930147;29;20048;-75
2021/11/21 02:01:38;;;;;;;9.20;4.63;;;;;;;;;;4911919;29;20056;-74
2021/11/21 02:04:07;;;;;;;11.10;5.50;;;;;;;;;;4912000;29;20060;-76
2021/11/21 02:06:37;;;;;;;13.02;6.30;;;;;;;;;;4913286;29;20410;-76
2021/11/21 02:09:06;;;;;;;9.93;4.67;;;;;;;;;;4910672;29;20052;-76
2021/11/21 02:11:35;;;;;;;11.13;5.32;;;;;;;;;;4906624;29;20060;-76
2021/11/21 02:14:04;;;;;;;10.20;4.95;;;;;;;;;;4912429;29;20095;-74
2021/11/21 02:16:33;;;;;;;11.55;5.60;;;;;;;;;;4906145;29;20594;-73
2021/11/21 02:19:02;;;;;;;13.43;5.38;;;;;;;;;;4910182;29;20048;-73
2021/11/21 02:21:33;;;;;;;13.40;6.27;;;;;;;;;;4911742;29;20061;-76
2021/11/21 02:24:02;;;;;;;11.85;5.55;;;;;;;;;;4910268;29;20087;-73
2021/11/21 02:26:31;;;;;;;10.93;5.65;;;;;;;;;;4911301;29;20048;-73
2021/11/21 02:29:00;;;;;;;12.55;5.53;;;;;;;;;;4921855;29;20086;-73
2021/11/21 02:31:30;;;;;;;13.13;6.40;;;;;;;;;;4904600;29;20066;-73
2021/11/21 02:34:00;;;;;;;10.83;5.87;;;;;;;;;;4904880;29;20065;-73
2021/11/21 02:36:37;;;;;;;12.00;5.78;;;;;;;;;;4912456;29;20398;-73
2021/11/21 02:39:05;;;;;;;10.50;5.70;;;;;;;;;;4910712;29;20055;-73
2021/11/21 02:41:34;;;;;;;14.50;5.97;;;;;;;;;;4924939;29;20097;-73
2021/11/21 02:44:03;;;;;;;14.52;5.35;;;;;;;;;;4910256;29;20063;-73
2021/11/21 02:46:36;;;;;;;10.27;4.93;;;;;;;;;;4908153;29;20048;-73
2021/11/21 02:49:05;;;;;;;12.48;5.95;;;;;;;;;;4912915;29;20111;-73
2021/11/21 02:51:34;;;;;;;11.55;5.75;;;;;;;;;;4911408;29;20509;-73
2021/11/21 02:54:05;;;;;;;12.05;5.90;;;;;;;;;;4909294;29;20080;-74
2021/11/21 02:56:35;;;;;;;11.70;6.00;;;;;;;;;;4910905;29;20060;-74
2021/11/21 02:59:03;;;;;;;12.43;6.53;;;;;;;;;;4918432;29;20135;-74
2021/11/21 03:01:33;;;;;;;13.70;5.65;;;;;;;;;;4912480;29;20071;-75
2021/11/21 03:04:03;;;;;;;16.70;7.25;;;;;;;;;;4912289;29;20056;-74
2021/11/21 03:06:36;;;;;;;13.30;6.07;;;;;;;;;;4914294;29;20086;-74
2021/11/21 03:09:06;;;;;;;12.98;5.72;;;;;;;;;;4916913;29;20075;-74
2021/11/21 03:11:36;;;;;;;14.60;5.43;;;;;;;;;;4912923;29;20052;-74
2021/11/21 03:14:06;;;;;;;16.48;6.82;;;;;;;;;;4915578;29;20066;-74
2021/11/21 03:16:36;;;;;;;14.32;6.47;;;;;;;;;;4910735;29;20059;-74
2021/11/21 03:19:05;;;;;;;16.65;7.28;;;;;;;;;;4912960;29;20415;-73
2021/11/21 03:21:33;;;;;;;14.38;5.72;;;;;;;;;;4913958;29;20048;-74
2021/11/21 03:24:03;;;;;;;12.63;5.77;;;;;;;;;;4913989;29;20127;-74
2021/11/21 03:26:34;;;;;;;14.02;5.70;;;;;;;;;;4915493;29;20470;-73
2021/11/21 03:29:05;;;;;;;16.33;6.55;;;;;;;;;;4915424;29;20066;-74
2021/11/21 03:31:34;;;;;;;13.20;5.68;;;;;;;;;;4914252;29;20062;-73
2021/11/21 03:34:03;;;;;;;13.50;6.40;;;;;;;;;;4915573;29;20174;-74
2021/11/21 03:36:38;;;;;;;16.43;7.07;;;;;;;;;;4914145;29;20055;-78
2021/11/21 03:39:08;;;;;;;15.23;6.47;;;;;;;;;;4913674;29;20057;-86
2021/11/21 03:41:39;;;;;;;16.77;6.85;;;;;;;;;;4908573;29;20609;-85
2021/11/21 03:44:08;;;;;;;15.05;6.43;;;;;;;;;;4908642;29;20139;-76
2021/11/21 03:46:39;;;;;;;16.48;6.82;;;;;;;;;;4914747;29;20115;-76
2021/11/21 03:49:08;;;;;;;14.20;5.40;;;;;;;;;;4915031;29;20048;-76
2021/11/21 03:51:37;;;;;;;15.57;6.57;;;;;;;;;;4914480;29;20131;-76
2021/11/21 03:54:09;;;;;;;16.02;6.95;;;;;;;;;;4914444;29;20052;-76
2021/11/21 03:56:40;;;;;;;15.63;6.53;;;;;;;;;;4915091;29;20084;-76
2021/11/21 03:59:08;;;;;;;18.60;8.05;;;;;;;;;;4915210;29;20550;-76
2021/11/21 04:01:37;;;;;;;16.13;6.83;;;;;;;;;;4911840;29;20143;-76
2021/11/21 04:04:07;;;;;;;17.17;6.25;;;;;;;;;;4909350;29;20451;-76
2021/11/21 04:06:36;;;;;;;19.75;6.93;;;;;;;;;;4918148;29;20048;-77
2021/11/21 04:09:06;;;;;;;18.67;7.10;;;;;;;;;;4915590;29;20044;-77
2021/11/21 04:11:35;;;;;;;17.50;7.43;;;;;;;;;;4908215;29;20147;-77
2021/11/21 04:14:06;;;;;;;15.90;6.37;;;;;;;;;;4909943;29;20139;-76
2021/11/21 04:16:35;;;;;;;26.73;7.20;;;;;;;;;;4912925;29;20541;-76
2021/11/21 04:19:06;;;;;;;16.88;6.72;;;;;;;;;;4915288;29;20134;-77
2021/11/21 04:21:36;;;;;;;14.18;5.63;;;;;;;;;;4913390;29;20066;-76
2021/11/21 04:24:12;;;;;;;13.68;6.80;;;;;;;;;;4915374;29;20047;-76
2021/11/21 04:26:53;;;;;;;16.90;5.43;;;;;;;;;;4912458;29;20052;-76
2021/11/21 04:29:23;;;;;;;18.70;6.18;;;;;;;;;;4917306;29;20052;-76
2021/11/21 04:31:54;;;;;;;21.58;7.03;;;;;;;;;;4910861;29;20067;-76
2021/11/21 04:34:22;;;;;;;17.65;6.35;;;;;;;;;;4913019;29;20048;-77
2021/11/21 04:36:54;;;;;;;16.20;5.75;;;;;;;;;;4914176;29;20139;-77
2021/11/21 04:39:23;;;;;;;17.23;6.20;;;;;;;;;;4922330;29;20052;-76
2021/11/21 04:41:52;;;;;;;18.35;6.88;;;;;;;;;;4912434;29;20048;-77
2021/11/21 04:44:23;;;;;;;16.33;5.00;;;;;;;;;;4911912;29;20499;-76
2021/11/21 04:46:51;;;;;;;15.95;6.57;;;;;;;;;;4910121;29;20058;-76
2021/11/21 04:49:20;;;;;;;12.18;5.00;;;;;;;;;;4913921;29;20423;-76
2021/11/21 04:51:49;;;;;;;11.97;4.70;;;;;;;;;;4914843;29;20058;-76
2021/11/21 04:54:20;;;;;;;10.43;3.70;;;;;;;;;;4914652;29;20131;-76
2021/11/21 04:56:49;;;;;;;10.23;3.72;;;;;;;;;;4913489;29;20080;-76
2021/11/21 04:59:18;;;;;;;12.25;4.60;;;;;;;;;;4911292;29;20499;-76
2021/11/21 05:01:49;;;;;;;10.95;4.80;;;;;;;;;;4911800;29;20553;-76
2021/11/21 05:04:19;;;;;;;9.07;3.57;;;;;;;;;;4925688;29;20058;-76
2021/11/21 05:06:48;;;;;;;8.82;3.40;;;;;;;;;;4928195;29;20048;-77
2021/11/21 05:09:16;;;;;;;11.32;3.70;;;;;;;;;;4913525;29;20055;-76
2021/11/21 05:11:45;;;;;;;9.77;3.72;;;;;;;;;;4928955;29;20119;-77
2021/11/21 05:14:17;;;;;;;12.30;4.05;;;;;;;;;;4912503;29;20071;-76
2021/11/21 05:16:53;;;;;;;12.23;4.67;;;;;;;;;;4932386;29;20056;-77
2021/11/21 05:19:23;;;;;;;10.68;4.60;;;;;;;;;;4930699;29;20130;-76
2021/11/21 05:21:52;;;;;;;12.38;4.32;;;;;;;;;;4908613;29;20051;-76
2021/11/21 05:24:24;;;;;;;12.32;4.53;;;;;;;;;;4929767;29;20098;-76
2021/11/21 05:26:52;;;;;;;9.82;3.58;;;;;;;;;;4915480;29;20139;-76
2021/11/21 05:29:22;;;;;;;9.07;4.23;;;;;;;;;;4894079;29;20055;-77
2021/11/21 05:31:51;;;;;;;9.65;4.10;;;;;;;;;;4930680;29;20058;-77
2021/11/21 05:34:21;;;;;;;12.07;4.57;;;;;;;;;;4921270;29;20086;-76
2021/11/21 05:36:50;;;;;;;11.90;3.97;;;;;;;;;;4931796;29;20048;-76
2021/11/21 05:39:20;;;;;;;8.77;3.30;;;;;;;;;;4913684;29;20059;-77
2021/11/21 05:41:48;;;;;;;10.63;3.33;;;;;;;;;;4927003;29;20052;-77
2021/11/21 05:44:17;;;;;;;12.45;4.25;;;;;;;;;;4921304;29;20383;-77
2021/11/21 05:46:46;;;;;;;11.25;3.97;;;;;;;;;;4931404;29;20043;-77
2021/11/21 05:49:15;;;;;;;12.63;5.22;;;;;;;;;;4930498;29;20186;-76
2021/11/21 05:51:45;;;;;;;14.85;4.78;;;;;;;;;;4932512;29;20097;-76
2021/11/21 05:54:14;;;;;;;11.80;3.70;;;;;;;;;;4913546;29;20048;-76
2021/11/21 05:56:44;;;;;;;16.45;4.75;;;;;;;;;;4929374;29;20524;-76
2021/11/21 05:59:13;;;;;;;11.85;3.83;;;;;;;;;;4912532;29;20043;-77
2021/11/21 06:01:42;;;;;;;11.65;4.50;;;;;;;;;;4927825;29;20052;-76
2021/11/21 06:04:12;;;;;;;10.45;4.68;;;;;;;;;;4903774;29;20059;-77
2021/11/21 06:06:40;;;;;;;10.23;3.73;;;;;;;;;;4915929;29;20138;-77
2021/11/21 06:09:10;;;;;;;13.38;4.65;;;;;;;;;;4927611;29;20086;-76
2021/11/21 06:11:39;;;;;;;10.77;4.50;;;;;;;;;;4900471;29;20048;-76
2021/11/21 06:14:08;;;;;;;11.48;3.65;;;;;;;;;;4915410;29;20083;-76
2021/11/21 06:16:38;;;;;;;12.63;4.10;;;;;;;;;;4932779;29;20055;-76
2021/11/21 06:19:07;;;;;;;13.03;3.63;;;;;;;;;;4932490;29;20477;-76
2021/11/21 06:21:36;;;;;;;11.27;4.78;;;;;;;;;;4915711;29;20490;-77
2021/11/21 06:24:07;;;;;;;14.85;5.25;;;;;;;;;;4912199;29;20529;-76
2021/11/21 06:26:37;;;;;;;9.40;4.15;;;;;;;;;;4928940;29;20058;-77
2021/11/21 06:29:06;;;;;;;10.40;3.92;;;;;;;;;;4915746;29;20107;-77
2021/11/21 06:31:37;;;;;;;14.07;4.03;;;;;;;;;;4931130;29;20467;-77
2021/11/21 06:34:06;;;;;;;11.77;3.60;;;;;;;;;;4895200;29;20127;-77
2021/11/21 06:36:38;;;;;;;11.43;4.10;;;;;;;;;;4929421;29;20111;-77
2021/11/21 06:39:07;;;;;;;10.00;3.58;;;;;;;;;;4928523;29;20055;-77
2021/11/21 06:41:38;;;;;;;9.23;3.50;;;;;;;;;;4918240;29;20068;-77
2021/11/21 06:44:07;;;;;;;8.53;3.33;;;;;;;;;;4919545;29;20118;-77
2021/11/21 06:46:37;;;;;;;9.73;4.05;;;;;;;;;;4918976;29;20059;-76
2021/11/21 06:49:08;;;;;;;8.68;2.97;;;;;;;;;;4927506;29;20147;-77
2021/11/21 06:51:41;;;;;;;9.45;3.03;;;;;;;;;;4931876;29;20048;-77
2021/11/21 06:54:10;;;;;;;9.98;3.15;;;;;;;;;;4922840;29;20048;-76
2021/11/21 06:56:44;;;;;;;8.13;2.80;;;;;;;;;;4928017;29;20513;-77
2021/11/21 06:59:12;;;;;;;9.43;3.53;;;;;;;;;;4925044;29;20052;-77
2021/11/21 07:01:42;;;;;;;9.13;3.25;;;;;;;;;;4935295;29;20047;-77
2021/11/21 07:04:11;;;;;;;9.18;2.78;;;;;;;;;;4909025;29;20598;-77
2021/11/21 07:06:41;;;;;;;10.30;3.55;;;;;;;;;;4928986;29;20541;-76
2021/11/21 07:09:11;;;;;;;9.60;2.77;;;;;;;;;;4914490;29;20064;-75
2021/11/21 07:11:40;;;;;;;10.55;3.72;;;;;;;;;;4913604;29;20056;-76
2021/11/21 07:14:11;;;;;;;6.90;2.58;;;;;;;;;;4916169;29;20052;-79
2021/11/21 07:17:02;;;;;;;7.38;2.47;;;;;;;;;;4906351;29;20067;-77
2021/11/21 07:20:02;;;;;;;6.50;2.65;;;;;;;;;;4928425;29;20056;-76
2021/11/21 07:23:21;;;;;;;6.40;2.80;;;;;;;;;;4909765;29;20710;-78
2021/11/21 07:25:51;;;;;;;8.38;3.28;;;;;;;;;;4915588;29;20110;-80
2021/11/21 07:28:20;;;;;;;7.82;2.65;;;;;;;;;;4915749;29;20056;-77
2021/11/21 07:30:50;;;;;;;8.95;3.38;;;;;;;;;;4917919;29;20063;-76
2021/11/21 07:33:18;;;;;;;7.60;2.80;;;;;;;;;;4912473;29;20058;-79
2021/11/21 07:35:47;;;;;;;6.70;2.93;;;;;;;;;;4934321;29;21107;-84
2021/11/21 07:38:17;;;;;;;10.00;3.05;;;;;;;;;;4918701;29;20062;-75
2021/11/21 07:40:46;;;;;;;10.85;3.10;;;;;;;;;;4931755;29;20541;-75
2021/11/21 07:43:15;;;;;;;8.18;3.15;;;;;;;;;;4919257;29;20066;-82
2021/11/21 07:45:43;;;;;;;7.68;2.72;;;;;;;;;;4899067;29;20131;-84
2021/11/21 07:48:14;;;;;;;5.93;2.60;;;;;;;;;;4910818;29;20066;-88
2021/11/21 07:50:43;;;;;;;7.45;2.58;;;;;;;;;;4916090;29;20060;-89
2021/11/21 07:53:13;;;;;;;12.25;3.28;;;;;;;;;;4917336;29;20051;-85
2021/11/21 07:55:43;;;;;;;10.55;3.75;;;;;;;;;;4913025;29;20052;-90
2021/11/21 07:58:12;;;;;;;9.02;3.17;;;;;;;;;;4920441;29;20071;-89
2021/11/21 08:01:06;;;;;;;10.93;3.60;;;;;;;;;;4903015;29;20048;-91
2021/11/21 08:03:40;;;;;;;11.38;3.25;;;;;;;;;;4896511;29;20056;-93
2021/11/21 08:06:10;;;;;;;10.18;3.40;;;;;;;;;;4915413;29;20116;-89
2021/11/21 08:08:41;;;;;;;9.10;3.08;;;;;;;;;;4904624;29;20059;-93
2021/11/21 08:11:09;;;;;;;9.82;3.22;;;;;;;;;;4910797;29;20068;-84
2021/11/21 08:13:39;;;;;;;8.10;2.87;;;;;;;;;;4906136;29;20056;-85
2021/11/21 08:16:09;;;;;;;10.13;3.33;;;;;;;;;;4910746;29;20080;-81
2021/11/21 08:18:39;;;;;;;7.70;2.92;;;;;;;;;;4908955;29;20257;-80
2021/11/21 08:21:08;;;;;;;9.68;3.65;;;;;;;;;;4915640;29;20086;-80
2021/11/21 08:23:42;;;;;;;11.85;3.67;;;;;;;;;;4913581;29;20052;-85
2021/11/21 08:26:12;;;;;;;10.67;3.37;;;;;;;;;;4912877;29;20495;-78
2021/11/21 08:28:40;;;;;;;11.30;3.70;;;;;;;;;;4912453;29;20107;-80
2021/11/21 08:31:18;;;;;;;10.65;4.07;;;;;;;;;;4912173;29;20151;-80
2021/11/21 08:33:49;;;;;;;8.93;3.67;;;;;;;;;;4911119;29;20087;-80
2021/11/21 08:36:19;;;;;;;9.18;3.08;;;;;;;;;;4909693;29;20596;-81
2021/11/21 08:38:48;;;;;;;10.97;4.17;;;;;;;;;;4900763;29;20045;-81
2021/11/21 08:41:17;;;;;;;9.18;3.17;;;;;;;;;;4911009;29;20084;-82
2021/11/21 08:43:46;;;;;;;9.25;3.53;;;;;;;;;;4903231;29;20061;-82
2021/11/21 08:46:18;;;;;;;10.75;3.70;;;;;;;;;;4906823;29;20084;-80
2021/11/21 08:48:47;;;;;;;10.75;3.90;;;;;;;;;;4928727;29;20056;-81
2021/11/21 08:51:17;;;;;;;8.80;3.43;;;;;;;;;;4910830;29;20147;-81
2021/11/21 08:53:47;;;;;;;6.70;2.95;;;;;;;;;;4903886;29;20067;-81
2021/11/21 08:56:17;;;;;;;6.35;3.28;;;;;;;;;;4911100;29;20079;-78
2021/11/21 08:58:46;;;;;;;10.88;4.18;;;;;;;;;;4906954;29;20075;-79
2021/11/21 09:01:15;;;;;;;8.20;2.88;;;;;;;;;;4911057;29;20087;-78
2021/11/21 09:03:44;;;;;;;10.40;3.93;;;;;;;;;;4895149;29;20063;-80
2021/11/21 09:06:13;;;;;;;9.95;3.70;;;;;;;;;;4914883;29;20047;-78
2021/11/21 09:08:45;;;;;;;9.07;3.10;;;;;;;;;;4913566;29;20056;-78
2021/11/21 09:11:14;;;;;;;11.98;3.75;;;;;;;;;;4913999;29;20091;-79
2021/11/21 09:13:43;;;;;;;10.65;3.78;;;;;;;;;;4910521;29;20071;-79
2021/11/21 09:16:13;;;;;;;13.53;3.57;;;;;;;;;;4910649;29;20100;-79
2021/11/21 09:18:42;;;;;;;10.32;3.53;;;;;;;;;;4891115;29;20059;-80
2021/11/21 09:21:11;;;;;;;8.32;3.65;;;;;;;;;;4908175;29;20044;-83
2021/11/21 09:23:41;;;;;;;12.65;4.63;;;;;;;;;;4910081;29;20060;-82
2021/11/21 09:26:11;;;;;;;11.02;3.70;;;;;;;;;;4902374;29;20099;-81
2021/11/21 09:28:41;;;;;;;8.47;3.60;;;;;;;;;;4893732;29;20135;-80
2021/11/21 09:31:10;;;;;;;8.13;2.35;;;;;;;;;;4897368;29;20052;-80
2021/11/21 09:33:39;;;;;;;9.57;4.18;;;;;;;;;;4901873;29;20107;-80
2021/11/21 09:36:10;;;;;;;12.68;3.85;;;;;;;;;;4904946;29;20487;-80
2021/11/21 09:38:40;;;;;;;11.30;4.70;;;;;;;;;;4904123;29;20062;-81
2021/11/21 09:41:08;;;;;;;9.07;3.53;;;;;;;;;;4907871;29;20132;-81
2021/11/21 09:43:38;;;;;;;9.88;4.00;;;;;;;;;;4906758;29;20119;-80
2021/11/21 09:46:09;;;;;;;10.68;4.07;;;;;;;;;;4906046;29;20143;-81
2021/11/21 09:48:37;;;;;;;10.23;4.22;;;;;;;;;;4888563;29;20064;-80
2021/11/21 09:51:07;;;;;;;10.65;3.65;;;;;;;;;;4904835;29;20052;-80
2021/11/21 09:54:03;;;;;;;11.73;4.43;;;;;;;;;;4908655;29;20060;-81
2021/11/21 09:56:33;;;;;;;8.55;3.53;;;;;;;;;;4908594;29;20051;-80
2021/11/21 09:59:02;;;;;;;13.20;4.22;;;;;;;;;;4911263;29;20131;-81
2021/11/21 10:01:36;;;;;;;10.23;3.15;;;;;;;;;;4910763;29;20135;-81
2021/11/21 10:04:06;;;;;;;8.57;3.13;;;;;;;;;;4874456;29;20060;-81
2021/11/21 10:06:36;;;;;;;11.30;3.27;;;;;;;;;;4875763;29;20075;-80
2021/11/21 10:09:08;;;;;;;12.38;3.88;;;;;;;;;;4874363;29;20372;-78
2021/11/21 10:11:52;;;;;;;10.98;3.80;;;;;;;;;;4890289;29;21664;-78
2021/11/21 10:14:45;;;;;;;9.93;4.18;;;;;;;;;;4877165;29;20067;-80
2021/11/21 10:17:23;;;;;;;12.20;3.88;;;;;;;;;;4870425;29;20136;-84
2021/11/21 10:20:13;;;;;;;10.40;3.00;;;;;;;;;;4890367;29;20068;-82
2021/11/21 10:23:01;;;;;;;8.88;3.78;;;;;;;;;;4889904;29;20486;-82
2021/11/21 10:25:45;;;;;;;9.40;4.13;;;;;;;;;;4888236;29;20067;-78
2021/11/21 10:28:19;;;;;;;8.38;3.40;;;;;;;;;;4892931;29;20063;-86
2021/11/21 10:30:57;;;;;;;9.23;3.58;;;;;;;;;;4871307;29;20555;-82
2021/11/21 10:33:28;;;;;;;9.60;3.33;;;;;;;;;;4876675;29;20053;-83
2021/11/21 10:36:04;;;;;;;9.23;4.15;;;;;;;;;;4893169;29;20124;-79
2021/11/21 10:38:35;;;;;;;9.38;3.63;;;;;;;;;;4886120;29;20052;-78
2021/11/21 10:41:06;;;;;;;9.85;3.88;;;;;;;;;;4892546;29;20496;-78
2021/11/21 10:43:42;;;;;;;12.07;3.75;;;;;;;;;;4896090;29;20108;-85
2021/11/21 10:46:21;;;;;;;12.77;3.77;;;;;;;;;;4899660;29;20056;-86
2021/11/21 10:48:52;;;;;;;8.82;3.13;;;;;;;;;;4873780;29;20507;-85
2021/11/21 10:51:22;;;;;;;9.50;4.10;;;;;;;;;;4889213;29;20064;-85
2021/11/21 10:53:52;;;;;;;10.82;4.28;;;;;;;;;;4878717;29;20061;-85
2021/11/21 10:56:47;;;;;;;12.40;5.05;;;;;;;;;;4904261;29;20536;-86
2021/11/21 10:59:18;;;;;;;10.90;4.53;;;;;;;;;;4868437;29;20132;-85
2021/11/21 11:01:47;;;;;;;11.95;3.22;;;;;;;;;;4890109;29;20083;-84
2021/11/21 11:04:20;;;;;;;7.30;3.53;;;;;;;;;;4889768;29;20127;-89
2021/11/21 11:06:49;;;;;;;9.75;3.83;;;;;;;;;;4892182;29;20198;-86
2021/11/21 11:09:19;;;;;;;11.75;4.22;;;;;;;;;;4888318;29;20060;-86
2021/11/21 11:11:49;;;;;;;9.60;3.17;;;;;;;;;;4891098;29;20144;-85
2021/11/21 11:14:24;;;;;;;5.25;2.13;;;;;;;;;;4869667;29;20052;-85
2021/11/21 11:16:56;;;;;;;13.05;4.50;;;;;;;;;;4895914;29;20048;-86
2021/11/21 11:19:31;;;;;;;10.10;3.50;;;;;;;;;;4895595;29;20033;-85
2021/11/21 11:22:01;;;;;;;12.18;4.18;;;;;;;;;;4892813;29;20055;-83
2021/11/21 11:24:31;;;;;;;10.13;3.50;;;;;;;;;;4898350;29;20061;-77
2021/11/21 11:27:05;;;;;;;9.40;3.97;;;;;;;;;;4873368;29;20064;-84
2021/11/21 11:32:35;;;;;;;9.40;3.47;;;;;;;;;;4890994;29;20472;-86
2021/11/21 11:35:06;;;;;;;11.55;3.55;;;;;;;;;;4891700;29;20060;-87
2021/11/21 11:37:54;;;;;;;9.70;3.77;;;;;;;;;;4890894;29;20117;-86
2021/11/21 11:40:39;;;;;;;6.53;2.97;;;;;;;;;;4897272;29;20064;-87
2021/11/21 11:43:29;;;;;;;8.75;3.22;;;;;;;;;;4883330;29;20056;-83
2021/11/21 11:45:59;;;;;;;9.82;3.25;;;;;;;;;;4883399;29;20128;-82
2021/11/21 11:48:32;;;;;;;15.25;3.72;;;;;;;;;;4888353;29;20049;-84
2021/11/21 11:51:11;;;;;;;11.67;3.53;;;;;;;;;;4895920;29;20055;-86
2021/11/21 11:54:21;;;;;;;8.85;2.95;;;;;;;;;;4878709;29;20068;-83
2021/11/21 11:56:59;;;;;;;6.70;2.70;;;;;;;;;;4874497;29;20053;-83
2021/11/21 11:59:41;;;;;;;7.30;2.17;;;;;;;;;;4890523;29;20120;-83
2021/11/21 12:09:58;;;;;;;6.93;2.58;;;;;;;;;;4843140;29;20119;-86
2021/11/21 12:21:01;;;;;;;8.70;2.47;;;;;;;;;;4740696;30;20061;-83
2021/11/21 12:39:49;;;;;;;;;;;;;;;;;;;;;
2021/11/21 13:01:13;;;;;;;4.37;0.93;;;;;;;;;;4992266;23;20968;-85
2021/11/21 13:03:47;;;;;;;3.33;1.20;;;;;;;;;;4886380;29;20064;-83
2021/11/21 13:06:18;;;;;;;4.75;1.25;;;;;;;;;;4882377;29;20103;-86
2021/11/21 13:08:50;;;;;;;4.55;1.35;;;;;;;;;;4878237;29;20056;-85
2021/11/21 13:11:23;;;;;;;6.47;1.73;;;;;;;;;;4881627;29;20398;-87
2021/11/21 13:13:57;;;;;;;5.63;1.43;;;;;;;;;;4855036;29;20104;-85
2021/11/21 13:16:27;;;;;;;5.20;1.73;;;;;;;;;;4862013;29;20049;-88
2021/11/21 13:18:58;;;;;;;4.35;1.60;;;;;;;;;;4874818;29;20148;-86
2021/11/21 13:21:30;;;;;;;4.13;1.63;;;;;;;;;;4878741;29;20060;-87
2021/11/21 13:24:25;;;;;;;4.25;1.70;;;;;;;;;;4853978;29;20152;-86
2021/11/21 13:26:59;;;;;;;6.57;1.53;;;;;;;;;;4874259;29;20059;-90
2021/11/21 13:29:32;;;;;;;4.07;1.55;;;;;;;;;;4879470;29;20060;-91
2021/11/21 13:32:02;;;;;;;4.35;1.92;;;;;;;;;;4883473;29;20060;-94
2021/11/21 13:34:32;;;;;;;5.03;1.70;;;;;;;;;;4863407;29;20057;-93
2021/11/21 13:37:02;;;;;;;6.85;2.05;;;;;;;;;;4858918;29;20140;-92
2021/11/21 13:39:34;;;;;;;4.73;2.13;;;;;;;;;;4879707;29;20081;-93
2021/11/21 13:42:12;;;;;;;5.47;1.67;;;;;;;;;;4863644;29;20056;-86
2021/11/21 13:44:44;;;;;;;4.25;1.67;;;;;;;;;;4877314;29;20503;-86
2021/11/21 13:47:15;;;;;;;5.57;1.95;;;;;;;;;;4875300;29;20041;-86
2021/11/21 13:49:46;;;;;;;3.63;1.30;;;;;;;;;;4875648;29;20147;-87
2021/11/21 13:52:19;;;;;;;5.23;1.37;;;;;;;;;;4876525;29;20084;-87
2021/11/21 13:54:49;;;;;;;4.28;1.67;;;;;;;;;;4888655;29;20044;-89
2021/11/21 13:57:26;;;;;;;4.25;1.45;;;;;;;;;;4862251;29;20049;-90
2021/11/21 13:59:57;;;;;;;4.03;1.30;;;;;;;;;;4863651;29;20161;-88
2021/11/21 14:02:33;;;;;;;4.65;1.48;;;;;;;;;;4910317;29;20139;-87
2021/11/21 14:05:05;;;;;;;7.90;1.67;;;;;;;;;;4905357;29;20104;-91
2021/11/21 14:07:35;;;;;;;2.70;1.20;;;;;;;;;;4898134;29;20487;-83
2021/11/21 14:10:05;;;;;;;5.13;1.20;;;;;;;;;;4902720;29;20103;-85
2021/11/21 14:12:37;;;;;;;6.03;1.88;;;;;;;;;;4908237;29;20148;-84
2021/11/21 14:15:12;;;;;;;3.70;1.20;;;;;;;;;;4912728;29;20052;-88
2021/11/21 14:17:43;;;;;;;6.70;1.70;;;;;;;;;;4899674;29;20044;-88
2021/11/21 14:20:37;;;;;;;5.15;1.58;;;;;;;;;;4907806;29;20055;-89
2021/11/21 14:23:13;;;;;;;4.28;1.73;;;;;;;;;;4905525;29;20080;-88
2021/11/21 14:25:44;;;;;;;5.47;2.08;;;;;;;;;;4899104;29;20056;-92
2021/11/21 14:28:23;;;;;;;5.55;1.67;;;;;;;;;;4920621;29;20052;-92
2021/11/21 14:30:53;;;;;;;3.03;0.97;;;;;;;;;;4910990;29;20052;-90
2021/11/21 14:33:26;;;;;;;4.38;1.52;;;;;;;;;;4919575;29;20165;-92
2021/11/21 14:36:09;;;;;;;5.47;1.88;;;;;;;;;;4897761;29;20112;-89
2021/11/21 14:39:10;;;;;;;4.40;1.73;;;;;;;;;;4901051;29;20062;-86
2021/11/21 14:41:48;;;;;;;6.10;1.80;;;;;;;;;;4831810;29;20094;-87
2021/11/21 14:44:20;;;;;;;5.03;2.00;;;;;;;;;;4903899;29;20139;-83
2021/11/21 14:46:51;;;;;;;3.85;1.38;;;;;;;;;;4908743;29;20147;-83
2021/11/21 14:49:29;;;;;;;3.28;1.35;;;;;;;;;;4920051;29;20061;-85
2021/11/21 14:52:01;;;;;;;7.78;1.98;;;;;;;;;;4899330;29;20047;-83
2021/11/21 14:54:35;;;;;;;4.90;2.28;;;;;;;;;;4887738;29;20435;-83
2021/11/21 16:44:07;;;;;;;;;;;;;;;;;;4892917;29;19934;-74
2021/11/21 16:46:36;;;;;;;;;;;;;;;;;;4893107;29;19976;-75
2021/11/21 16:49:07;;;;;;;;;;;;;;;;;;4883497;29;20357;-75
2021/11/21 16:51:36;;;;;;;;;;;;;;;;;;4866274;29;20015;-74
2021/11/21 16:54:05;;;;;;;;;;;;;;;;;;4898504;29;19949;-74
2021/11/21 16:56:49;;;;;;;;;;;;;;;;;;4886404;29;19935;-75
2021/11/21 16:59:42;;;;;;;;;;;;;;;;;;4893270;29;19935;-75
2021/11/21 17:02:13;;;;;;;;;;;;;;;;;;4875788;29;20025;-75
2021/11/21 17:04:44;;;;;;;;;;;;;;;;;;4883293;29;19937;-75
2021/11/21 17:07:16;;;;;;;6.75;2.25;;;;;;;;;;4886554;29;20459;-75
2021/11/21 17:09:47;;;;;;;6.60;2.27;;;;;;;;;;4893062;29;20063;-75
2021/11/21 17:12:17;;;;;;;4.70;2.45;;;;;;;;;;4902735;29;20469;-75
2021/11/21 17:14:49;;;;;;;5.10;2.25;;;;;;;;;;4882976;29;20529;-75
2021/11/21 17:17:20;;;;;;;6.78;2.65;;;;;;;;;;4898313;29;20549;-75
2021/11/21 17:19:53;;;;;;;8.52;2.72;;;;;;;;;;4888728;29;20067;-75
2021/11/21 17:22:24;;;;;;;7.37;2.80;;;;;;;;;;4871444;29;20484;-75
2021/11/21 17:24:59;;;;;;;6.95;2.80;;;;;;;;;;4880920;29;20090;-75
2021/11/21 17:27:29;;;;;;;7.38;2.35;;;;;;;;;;4870286;29;20060;-74
2021/11/21 17:30:00;;;;;;;6.97;2.67;;;;;;;;;;4880851;29;20514;-76
2021/11/21 17:32:34;;;;;;;5.65;1.75;;;;;;;;;;4899131;29;20059;-75
2021/11/21 17:35:04;;;;;;;4.60;2.20;;;;;;;;;;4895525;29;20045;-75
2021/11/21 17:37:38;;;;;;;6.63;2.15;;;;;;;;;;4882361;29;20062;-75
2021/11/21 17:40:19;;;;;;;5.57;2.60;;;;;;;;;;4892960;29;20411;-75
2021/11/21 17:42:53;;;;;;;5.97;1.85;;;;;;;;;;4878865;29;20075;-74
2021/11/21 17:45:24;;;;;;;3.78;1.85;;;;;;;;;;4892966;29;20058;-75
2021/11/21 17:47:55;;;;;;;5.00;2.00;;;;;;;;;;4861730;29;20056;-75